Time;durP1;ratioP1;P1;durP2;ratioP2;P2;SDS_P1;SDS_P2;PMS_P1;PMS_P2;Temp;Humidity;BMP_temperature;BMP_pressure;BME280_temperature;BME280_humidity;BME280_pressure;Samples;Min_cycle;Max_cycle;Signal;HPM_P1;HPM_P2
2022/04/13 00:00:27;;;;;;;2.28;1.30;;;;;;;;;;5113463;28;20031;-56
2022/04/13 00:02:53;;;;;;;1.52;0.93;;;;;;;;;;5112617;28;20020;-56
2022/04/13 00:05:19;;;;;;;2.70;1.17;;;;;;;;;;5113556;28;20035;-55
2022/04/13 00:07:45;;;;;;;3.38;1.80;;;;;;;;;;5113219;28;20032;-64
2022/04/13 00:10:11;;;;;;;1.80;0.93;;;;;;;;;;5112507;28;20024;-56
2022/04/13 00:12:37;;;;;;;3.42;1.38;;;;;;;;;;5113069;28;20433;-56
2022/04/13 00:15:04;;;;;;;3.17;0.93;;;;;;;;;;5112407;28;20058;-56
2022/04/13 00:17:31;;;;;;;1.30;1.00;;;;;;;;;;5112970;28;20031;-54
2022/04/13 00:19:57;;;;;;;2.58;1.08;;;;;;;;;;5112495;28;20053;-57
2022/04/13 00:22:23;;;;;;;2.67;1.48;;;;;;;;;;5113320;28;20023;-58
2022/04/13 00:24:49;;;;;;;2.20;1.17;;;;;;;;;;5112513;28;20028;-65
2022/04/13 00:27:15;;;;;;;2.55;0.93;;;;;;;;;;5112655;28;20126;-56
2022/04/13 00:29:41;;;;;;;1.42;0.90;;;;;;;;;;5113082;28;20047;-55
2022/04/13 00:32:07;;;;;;;1.13;0.80;;;;;;;;;;5111372;28;20020;-54
2022/04/13 00:34:34;;;;;;;1.67;0.80;;;;;;;;;;5110050;28;20088;-56
2022/04/13 00:37:00;;;;;;;1.58;0.80;;;;;;;;;;5104675;28;20039;-55
2022/04/13 00:39:26;;;;;;;2.30;0.93;;;;;;;;;;5096817;28;20027;-55
2022/04/13 00:41:59;;;;;;;1.45;1.00;;;;;;;;;;5112220;28;20031;-58
2022/04/13 00:44:27;;;;;;;1.33;0.80;;;;;;;;;;5112460;28;20044;-56
2022/04/13 00:46:53;;;;;;;1.15;1.00;;;;;;;;;;5108974;28;20023;-57
2022/04/13 00:49:20;;;;;;;2.45;0.95;;;;;;;;;;5111400;28;20108;-55
2022/04/13 00:51:46;;;;;;;1.25;0.88;;;;;;;;;;5092515;28;20198;-56
2022/04/13 00:54:12;;;;;;;1.42;0.90;;;;;;;;;;5091274;28;20032;-57
2022/04/13 00:56:40;;;;;;;1.27;0.93;;;;;;;;;;5095710;28;20376;-55
2022/04/13 00:59:09;;;;;;;1.55;0.75;;;;;;;;;;5111959;28;20374;-57
2022/04/13 01:01:37;;;;;;;1.67;1.05;;;;;;;;;;5107590;28;20032;-55
2022/04/13 01:04:04;;;;;;;2.22;0.90;;;;;;;;;;5092151;28;20031;-55
2022/04/13 01:06:30;;;;;;;2.75;0.98;;;;;;;;;;5095218;28;20028;-55
2022/04/13 01:08:56;;;;;;;1.40;0.80;;;;;;;;;;5111721;28;20031;-55
2022/04/13 01:11:23;;;;;;;2.88;0.90;;;;;;;;;;5112313;28;20028;-56
2022/04/13 01:13:49;;;;;;;2.85;1.38;;;;;;;;;;5112175;28;20394;-64
2022/04/13 01:16:16;;;;;;;1.65;1.00;;;;;;;;;;5104535;28;20020;-55
2022/04/13 01:18:42;;;;;;;1.65;0.95;;;;;;;;;;5092158;28;20027;-55
2022/04/13 01:21:12;;;;;;;2.13;1.25;;;;;;;;;;5090939;28;20077;-56
2022/04/13 01:23:39;;;;;;;1.52;0.80;;;;;;;;;;5091821;28;20085;-56
2022/04/13 01:26:08;;;;;;;1.67;0.98;;;;;;;;;;5092111;28;20444;-55
2022/04/13 01:28:34;;;;;;;1.30;0.80;;;;;;;;;;5091989;28;20104;-55
2022/04/13 01:31:00;;;;;;;1.05;0.70;;;;;;;;;;5091361;28;20024;-55
2022/04/13 01:33:29;;;;;;;2.08;1.67;;;;;;;;;;5092326;28;20027;-55
2022/04/13 01:36:02;;;;;;;1.10;0.88;;;;;;;;;;5093393;28;20027;-57
2022/04/13 01:38:29;;;;;;;2.20;1.00;;;;;;;;;;5091989;28;20081;-58
2022/04/13 01:40:56;;;;;;;1.35;0.77;;;;;;;;;;5090606;28;20482;-58
2022/04/13 01:43:22;;;;;;;1.60;1.00;;;;;;;;;;5091896;28;20358;-57
2022/04/13 01:45:49;;;;;;;0.95;0.60;;;;;;;;;;5107732;28;20050;-55
2022/04/13 01:48:16;;;;;;;2.22;1.20;;;;;;;;;;5111681;28;20043;-55
2022/04/13 01:50:42;;;;;;;1.98;1.00;;;;;;;;;;5112038;28;20031;-54
2022/04/13 01:53:08;;;;;;;2.88;0.70;;;;;;;;;;5093079;28;20055;-56
2022/04/13 01:55:34;;;;;;;1.23;0.88;;;;;;;;;;5093453;28;20030;-58
2022/04/13 01:58:00;;;;;;;1.25;1.02;;;;;;;;;;5110548;28;20391;-56
2022/04/13 02:00:26;;;;;;;1.45;0.90;;;;;;;;;;5093766;28;20019;-55
2022/04/13 02:02:53;;;;;;;3.20;1.00;;;;;;;;;;5096083;28;20506;-65
2022/04/13 02:05:19;;;;;;;0.90;0.77;;;;;;;;;;5091658;28;20024;-61
2022/04/13 02:07:45;;;;;;;1.85;1.08;;;;;;;;;;5111941;28;20027;-56
2022/04/13 02:10:11;;;;;;;1.85;0.90;;;;;;;;;;5111018;28;20043;-55
2022/04/13 02:12:37;;;;;;;1.23;0.82;;;;;;;;;;5093882;28;20020;-56
2022/04/13 02:15:06;;;;;;;1.52;1.10;;;;;;;;;;5114867;28;20027;-55
2022/04/13 02:17:32;;;;;;;1.38;0.90;;;;;;;;;;5096564;28;20031;-54
2022/04/13 02:19:58;;;;;;;3.58;1.45;;;;;;;;;;5094806;28;20085;-56
2022/04/13 02:22:24;;;;;;;1.50;1.10;;;;;;;;;;5095217;28;20024;-53
2022/04/13 02:24:50;;;;;;;1.35;0.88;;;;;;;;;;5094952;28;20043;-65
2022/04/13 02:27:16;;;;;;;2.10;0.95;;;;;;;;;;5094388;28;20111;-54
2022/04/13 02:29:46;;;;;;;3.42;0.80;;;;;;;;;;5115537;28;20456;-56
2022/04/13 02:32:12;;;;;;;1.23;0.70;;;;;;;;;;5114296;28;20019;-56
2022/04/13 02:34:38;;;;;;;1.63;0.98;;;;;;;;;;5115246;28;20381;-56
2022/04/13 02:37:04;;;;;;;2.15;1.25;;;;;;;;;;5114476;28;20034;-57
2022/04/13 02:39:30;;;;;;;1.60;1.00;;;;;;;;;;5115029;28;20023;-58
2022/04/13 02:41:56;;;;;;;1.20;0.93;;;;;;;;;;5114340;28;20195;-59
2022/04/13 02:44:22;;;;;;;2.42;1.00;;;;;;;;;;5114711;28;20492;-55
2022/04/13 02:46:48;;;;;;;5.00;1.10;;;;;;;;;;5115204;28;20016;-56
2022/04/13 02:49:14;;;;;;;1.55;1.00;;;;;;;;;;5112620;28;20664;-56
2022/04/13 02:51:40;;;;;;;2.78;1.25;;;;;;;;;;5100835;28;20024;-56
2022/04/13 02:54:06;;;;;;;0.80;0.70;;;;;;;;;;5114381;28;20081;-56
2022/04/13 02:56:32;;;;;;;1.40;0.95;;;;;;;;;;5101706;28;20032;-56
2022/04/13 02:58:58;;;;;;;1.35;0.90;;;;;;;;;;5103783;28;20038;-58
2022/04/13 03:01:24;;;;;;;1.38;0.90;;;;;;;;;;5114813;28;20098;-56
2022/04/13 03:03:50;;;;;;;1.88;0.93;;;;;;;;;;5104283;28;20024;-56
2022/04/13 03:06:16;;;;;;;1.23;0.80;;;;;;;;;;5107185;28;20027;-57
2022/04/13 03:08:42;;;;;;;2.50;1.10;;;;;;;;;;5114762;28;20063;-56
2022/04/13 03:11:08;;;;;;;0.98;0.80;;;;;;;;;;5113778;28;20160;-58
2022/04/13 03:13:34;;;;;;;1.05;0.95;;;;;;;;;;5108822;28;20028;-56
2022/04/13 03:16:01;;;;;;;1.52;0.80;;;;;;;;;;5092377;28;20032;-57
2022/04/13 03:18:27;;;;;;;1.20;0.80;;;;;;;;;;5093868;28;20028;-57
2022/04/13 03:20:53;;;;;;;1.30;0.88;;;;;;;;;;5093999;28;20020;-65
2022/04/13 03:23:19;;;;;;;1.45;0.88;;;;;;;;;;5098266;28;20073;-55
2022/04/13 03:25:45;;;;;;;1.30;0.98;;;;;;;;;;5113649;28;20464;-56
2022/04/13 03:28:11;;;;;;;3.08;0.90;;;;;;;;;;5113369;28;20110;-56
2022/04/13 03:30:37;;;;;;;1.40;1.20;;;;;;;;;;5113925;28;20161;-56
2022/04/13 03:33:03;;;;;;;1.08;0.82;;;;;;;;;;5110316;28;20031;-57
2022/04/13 03:35:29;;;;;;;2.53;0.93;;;;;;;;;;5107330;28;20042;-56
2022/04/13 03:37:55;;;;;;;2.05;0.90;;;;;;;;;;5113489;28;20106;-65
2022/04/13 03:40:23;;;;;;;1.65;1.23;;;;;;;;;;5113978;28;20024;-56
2022/04/13 03:42:49;;;;;;;1.90;0.90;;;;;;;;;;5114001;28;20024;-56
2022/04/13 03:45:15;;;;;;;1.58;1.05;;;;;;;;;;5095837;28;20031;-56
2022/04/13 03:47:42;;;;;;;0.93;0.80;;;;;;;;;;5113793;28;20032;-58
2022/04/13 03:50:08;;;;;;;1.42;0.93;;;;;;;;;;5112662;28;20476;-57
2022/04/13 03:52:35;;;;;;;2.20;0.90;;;;;;;;;;5113536;28;20469;-57
2022/04/13 03:55:02;;;;;;;1.88;1.30;;;;;;;;;;5112803;28;20478;-56
2022/04/13 03:57:28;;;;;;;1.38;1.00;;;;;;;;;;5113750;28;20390;-57
2022/04/13 03:59:54;;;;;;;1.42;1.13;;;;;;;;;;5113402;28;20015;-61
2022/04/13 04:02:20;;;;;;;2.03;0.90;;;;;;;;;;5112831;28;20034;-55
2022/04/13 04:04:45;;;;;;;1.67;0.98;;;;;;;;;;5112233;28;20024;-54
2022/04/13 04:07:12;;;;;;;1.98;1.00;;;;;;;;;;5112715;28;20032;-55
2022/04/13 04:09:37;;;;;;;1.85;0.90;;;;;;;;;;5113606;28;20031;-55
2022/04/13 04:12:04;;;;;;;1.55;0.98;;;;;;;;;;5112632;28;20031;-55
2022/04/13 04:14:30;;;;;;;1.38;0.90;;;;;;;;;;5113001;28;20106;-55
2022/04/13 04:16:56;;;;;;;2.30;1.13;;;;;;;;;;5112707;28;20119;-60
2022/04/13 04:19:22;;;;;;;3.88;1.13;;;;;;;;;;5107558;28;20024;-55
2022/04/13 04:21:48;;;;;;;1.60;0.80;;;;;;;;;;5113332;28;20102;-55
2022/04/13 04:24:14;;;;;;;1.23;0.80;;;;;;;;;;5112111;28;20028;-55
2022/04/13 04:26:40;;;;;;;2.67;0.98;;;;;;;;;;5113490;28;20032;-55
2022/04/13 04:29:07;;;;;;;1.52;0.75;;;;;;;;;;5111878;28;20027;-55
2022/04/13 04:32:06;;;;;;;1.13;0.93;;;;;;;;;;5113140;28;20027;-57
2022/04/13 04:34:25;;;;;;;1.55;1.00;;;;;;;;;;5111290;28;20032;-55
2022/04/13 04:36:51;;;;;;;1.60;1.00;;;;;;;;;;5112960;28;20114;-55
2022/04/13 04:39:17;;;;;;;1.73;0.88;;;;;;;;;;5115975;28;20023;-55
2022/04/13 04:41:44;;;;;;;1.65;0.80;;;;;;;;;;5113583;28;20111;-55
2022/04/13 04:44:10;;;;;;;2.97;1.00;;;;;;;;;;5111595;28;20054;-55
2022/04/13 04:46:37;;;;;;;1.02;0.80;;;;;;;;;;5112766;28;20107;-55
2022/04/13 04:49:06;;;;;;;1.30;0.77;;;;;;;;;;5111618;28;20070;-55
2022/04/13 04:51:32;;;;;;;0.82;0.70;;;;;;;;;;5112616;28;20492;-54
2022/04/13 04:54:01;;;;;;;2.97;1.23;;;;;;;;;;5112058;28;20047;-64
2022/04/13 04:56:28;;;;;;;1.73;0.73;;;;;;;;;;5112451;28;20032;-55
2022/04/13 04:58:54;;;;;;;1.88;1.02;;;;;;;;;;5112310;28;20032;-56
2022/04/13 05:01:20;;;;;;;1.75;1.02;;;;;;;;;;5111539;28;20023;-57
2022/04/13 05:03:48;;;;;;;1.98;1.13;;;;;;;;;;5112200;28;20030;-57
2022/04/13 05:06:16;;;;;;;1.65;0.98;;;;;;;;;;5111346;28;20119;-57
2022/04/13 05:08:42;;;;;;;1.75;0.90;;;;;;;;;;5094021;28;20384;-56
2022/04/13 05:11:08;;;;;;;2.65;0.88;;;;;;;;;;5112306;28;20030;-57
2022/04/13 05:13:34;;;;;;;1.55;0.98;;;;;;;;;;5111749;28;20026;-57
2022/04/13 05:16:00;;;;;;;2.80;1.00;;;;;;;;;;5112884;28;20104;-64
2022/04/13 05:18:26;;;;;;;1.15;0.88;;;;;;;;;;5112293;28;20385;-57
2022/04/13 05:20:53;;;;;;;3.05;0.95;;;;;;;;;;5111992;28;20023;-57
2022/04/13 05:23:19;;;;;;;3.72;1.30;;;;;;;;;;5110684;28;20614;-57
2022/04/13 05:25:46;;;;;;;1.42;0.90;;;;;;;;;;5112510;28;20030;-55
2022/04/13 05:28:12;;;;;;;5.35;0.85;;;;;;;;;;5111597;28;20077;-57
2022/04/13 05:30:38;;;;;;;1.95;0.98;;;;;;;;;;5112123;28;20031;-56
2022/04/13 05:33:06;;;;;;;2.20;0.90;;;;;;;;;;5110870;28;20028;-56
2022/04/13 05:35:32;;;;;;;2.53;1.08;;;;;;;;;;5111834;28;20024;-53
2022/04/13 05:37:58;;;;;;;2.50;1.05;;;;;;;;;;5111675;28;20024;-63
2022/04/13 05:40:24;;;;;;;4.32;1.00;;;;;;;;;;5110945;28;20120;-53
2022/04/13 05:42:51;;;;;;;2.83;1.30;;;;;;;;;;5111930;28;20019;-51
2022/04/13 05:45:17;;;;;;;3.35;1.17;;;;;;;;;;5110840;28;20054;-57
2022/04/13 05:47:43;;;;;;;3.92;1.77;;;;;;;;;;5112380;28;20024;-57
2022/04/13 05:50:10;;;;;;;4.25;1.50;;;;;;;;;;5115411;28;20035;-55
2022/04/13 05:52:36;;;;;;;10.10;1.80;;;;;;;;;;5116285;28;20031;-54
2022/04/13 05:55:03;;;;;;;9.70;2.00;;;;;;;;;;5115057;28;20035;-65
2022/04/13 05:57:29;;;;;;;4.00;2.10;;;;;;;;;;5115500;28;20032;-54
2022/04/13 05:59:55;;;;;;;6.18;1.67;;;;;;;;;;5115906;28;20023;-56
2022/04/13 06:02:21;;;;;;;4.57;1.65;;;;;;;;;;5114726;28;20054;-54
2022/04/13 06:04:47;;;;;;;5.43;2.03;;;;;;;;;;5115515;28;20024;-54
2022/04/13 06:07:13;;;;;;;3.08;1.30;;;;;;;;;;5114681;28;20030;-47
2022/04/13 06:09:39;;;;;;;5.32;1.63;;;;;;;;;;5115180;28;20032;-55
2022/04/13 06:12:05;;;;;;;5.15;1.50;;;;;;;;;;5114627;28;20447;-57
2022/04/13 06:14:31;;;;;;;5.95;1.70;;;;;;;;;;5114858;28;20020;-55
2022/04/13 06:16:57;;;;;;;5.70;2.17;;;;;;;;;;5114935;28;20380;-57
2022/04/13 06:19:23;;;;;;;3.35;1.90;;;;;;;;;;5114541;28;20042;-55
2022/04/13 06:21:49;;;;;;;3.03;1.52;;;;;;;;;;5115563;28;20028;-54
2022/04/13 06:24:16;;;;;;;5.70;1.95;;;;;;;;;;5114643;28;20050;-57
2022/04/13 06:26:42;;;;;;;3.42;1.73;;;;;;;;;;5113990;27;20039;-55
2022/04/13 06:29:08;;;;;;;3.13;1.50;;;;;;;;;;5126109;27;20034;-54
2022/04/13 06:31:34;;;;;;;5.18;1.75;;;;;;;;;;5114844;28;20127;-56
2022/04/13 06:34:00;;;;;;;5.07;1.73;;;;;;;;;;5114559;28;20117;-64
2022/04/13 06:36:26;;;;;;;8.20;1.50;;;;;;;;;;5113833;28;20035;-57
2022/04/13 06:38:52;;;;;;;4.30;1.38;;;;;;;;;;5114650;28;20023;-57
2022/04/13 06:41:21;;;;;;;5.07;1.65;;;;;;;;;;5114439;28;20488;-57
2022/04/13 06:43:47;;;;;;;5.20;1.63;;;;;;;;;;5096710;28;20023;-57
2022/04/13 06:46:13;;;;;;;4.05;1.42;;;;;;;;;;5113695;28;20380;-56
2022/04/13 06:48:39;;;;;;;2.15;1.20;;;;;;;;;;5114317;28;20453;-57
2022/04/13 06:51:06;;;;;;;4.57;1.67;;;;;;;;;;5113419;28;20031;-57
2022/04/13 06:53:32;;;;;;;3.75;1.65;;;;;;;;;;5114656;28;20016;-56
2022/04/13 06:55:58;;;;;;;3.53;1.45;;;;;;;;;;5113960;28;20029;-58
2022/04/13 06:58:24;;;;;;;3.55;1.67;;;;;;;;;;5113689;28;20027;-55
2022/04/13 07:00:50;;;;;;;4.90;1.80;;;;;;;;;;5113346;28;20449;-54
2022/04/13 07:03:16;;;;;;;4.47;1.75;;;;;;;;;;5104921;28;20473;-55
2022/04/13 07:05:42;;;;;;;4.13;1.70;;;;;;;;;;5114766;28;20525;-55
2022/04/13 07:08:08;;;;;;;3.70;1.42;;;;;;;;;;5113403;28;20031;-58
2022/04/13 07:10:34;;;;;;;3.50;1.85;;;;;;;;;;5113657;28;20027;-55
2022/04/13 07:13:01;;;;;;;3.13;1.70;;;;;;;;;;5114585;28;20023;-54
2022/04/13 07:15:27;;;;;;;2.20;1.40;;;;;;;;;;5113683;28;20114;-57
2022/04/13 07:17:54;;;;;;;7.57;1.50;;;;;;;;;;5114259;28;20028;-57
2022/04/13 07:20:20;;;;;;;3.60;1.70;;;;;;;;;;5113805;28;20521;-56
2022/04/13 07:22:50;;;;;;;6.38;1.90;;;;;;;;;;5114201;28;20031;-57
2022/04/13 07:25:17;;;;;;;4.80;1.90;;;;;;;;;;5110094;27;20119;-57
2022/04/13 07:27:43;;;;;;;2.75;1.40;;;;;;;;;;5134462;27;20028;-55
2022/04/13 07:30:09;;;;;;;5.22;1.88;;;;;;;;;;5118206;27;20028;-57
2022/04/13 07:32:36;;;;;;;3.63;1.38;;;;;;;;;;5113877;28;20385;-55
2022/04/13 07:35:03;;;;;;;3.42;1.48;;;;;;;;;;5113679;28;20035;-63
2022/04/13 07:37:29;;;;;;;3.22;1.50;;;;;;;;;;5112857;28;20488;-57
2022/04/13 07:39:55;;;;;;;4.38;1.60;;;;;;;;;;5113322;28;20019;-55
2022/04/13 07:42:25;;;;;;;3.90;1.70;;;;;;;;;;5112794;28;20023;-55
2022/04/13 07:44:51;;;;;;;2.22;1.70;;;;;;;;;;5113745;28;20403;-56
2022/04/13 07:47:20;;;;;;;5.68;1.58;;;;;;;;;;5111728;28;20031;-58
2022/04/13 07:49:47;;;;;;;3.53;1.80;;;;;;;;;;5113155;27;20035;-55
2022/04/13 07:52:13;;;;;;;4.97;1.38;;;;;;;;;;5113064;28;20422;-57
2022/04/13 07:54:39;;;;;;;2.65;1.55;;;;;;;;;;5113373;28;20027;-55
2022/04/13 07:57:05;;;;;;;3.58;1.60;;;;;;;;;;5112432;28;20080;-63
2022/04/13 07:59:31;;;;;;;3.78;2.05;;;;;;;;;;5113811;28;20028;-57
2022/04/13 08:01:58;;;;;;;4.18;1.75;;;;;;;;;;5113488;28;20035;-57
2022/04/13 08:04:24;;;;;;;3.22;1.63;;;;;;;;;;5111672;28;20613;-57
2022/04/13 08:06:50;;;;;;;1.83;1.30;;;;;;;;;;5092787;28;20018;-57
2022/04/13 08:09:16;;;;;;;3.03;1.95;;;;;;;;;;5095257;28;20040;-57
2022/04/13 08:11:45;;;;;;;6.45;2.53;;;;;;;;;;5112489;28;20112;-57
2022/04/13 08:14:11;;;;;;;3.85;2.47;;;;;;;;;;5112630;28;20016;-55
2022/04/13 08:16:37;;;;;;;2.75;1.52;;;;;;;;;;5113410;28;20034;-54
2022/04/13 08:19:05;;;;;;;2.88;1.60;;;;;;;;;;5112564;28;20494;-64
2022/04/13 08:21:31;;;;;;;4.22;1.80;;;;;;;;;;5113135;28;20080;-55
2022/04/13 08:23:57;;;;;;;3.30;1.90;;;;;;;;;;5112953;28;20431;-54
2022/04/13 08:26:23;;;;;;;3.20;1.80;;;;;;;;;;5111790;28;20055;-55
2022/04/13 08:28:49;;;;;;;2.83;1.77;;;;;;;;;;5112844;28;20491;-58
2022/04/13 08:31:15;;;;;;;4.70;2.38;;;;;;;;;;5111774;28;20088;-57
2022/04/13 08:33:41;;;;;;;3.10;1.50;;;;;;;;;;5112742;28;20024;-60
2022/04/13 08:36:07;;;;;;;5.78;2.33;;;;;;;;;;5112028;28;20020;-63
2022/04/13 08:38:33;;;;;;;4.25;1.90;;;;;;;;;;5113130;28;20065;-57
2022/04/13 08:41:00;;;;;;;2.83;1.70;;;;;;;;;;5112908;28;20483;-57
2022/04/13 08:43:31;;;;;;;3.78;1.90;;;;;;;;;;5111860;28;20669;-57
2022/04/13 08:46:03;;;;;;;2.33;1.65;;;;;;;;;;5112238;28;20039;-59
2022/04/13 08:48:29;;;;;;;;;;;;;;;;;;5111677;28;20067;-58
2022/04/13 08:51:02;;;;;;;2.85;1.80;;;;;;;;;;5112544;28;19924;-57
2022/04/13 08:53:28;;;;;;;;;;;;;;;;;;5112324;28;20028;-57
2022/04/13 08:55:55;;;;;;;6.38;2.10;;;;;;;;;;5111920;28;19912;-59
2022/04/13 08:59:01;;;;;;;3.20;1.75;;;;;;;;;;5111303;28;20102;-58
2022/04/13 09:01:38;;;;;;;4.50;1.95;;;;;;;;;;5024716;28;20113;-56
2022/04/13 09:04:10;;;;;;;3.67;1.95;;;;;;;;;;5020736;28;20030;-65
2022/04/13 09:06:37;;;;;;;3.97;1.80;;;;;;;;;;5014169;28;20033;-57
2022/04/13 09:09:05;;;;;;;3.70;1.70;;;;;;;;;;5010105;28;20037;-55
2022/04/13 09:11:32;;;;;;;3.13;1.77;;;;;;;;;;5009458;28;20034;-58
2022/04/13 09:13:58;;;;;;;3.88;2.47;;;;;;;;;;5012892;28;20042;-57
2022/04/13 09:16:25;;;;;;;3.53;1.70;;;;;;;;;;5019078;28;20177;-59
2022/04/13 09:18:51;;;;;;;3.50;2.40;;;;;;;;;;5013728;28;20050;-58
2022/04/13 09:21:17;;;;;;;5.72;1.80;;;;;;;;;;5025091;28;20055;-59
2022/04/13 09:23:44;;;;;;;8.23;1.80;;;;;;;;;;5021319;28;20038;-59
2022/04/13 09:26:10;;;;;;;2.67;1.80;;;;;;;;;;5019545;28;20044;-59
2022/04/13 09:28:37;;;;;;;1.90;1.27;;;;;;;;;;5029278;28;20115;-58
2022/04/13 09:31:03;;;;;;;2.97;1.70;;;;;;;;;;5030539;28;20065;-58
2022/04/13 09:33:29;;;;;;;3.22;1.63;;;;;;;;;;5090640;28;20024;-58
2022/04/13 09:35:55;;;;;;;2.65;1.63;;;;;;;;;;5107463;28;20032;-57
2022/04/13 09:38:21;;;;;;;3.17;2.00;;;;;;;;;;5110800;28;20030;-57
2022/04/13 09:40:50;;;;;;;3.42;2.25;;;;;;;;;;5111946;28;20435;-57
2022/04/13 09:43:17;;;;;;;2.38;1.55;;;;;;;;;;5110619;28;20023;-58
2022/04/13 09:45:45;;;;;;;2.17;1.60;;;;;;;;;;5111661;28;20545;-58
2022/04/13 09:48:12;;;;;;;3.55;1.80;;;;;;;;;;5110760;28;20063;-57
2022/04/13 09:50:39;;;;;;;5.68;1.80;;;;;;;;;;5111644;28;20043;-58
2022/04/13 09:53:06;;;;;;;3.40;1.73;;;;;;;;;;5111104;28;20077;-58
2022/04/13 09:55:39;;;;;;;2.50;1.52;;;;;;;;;;5110624;28;20027;-58
2022/04/13 09:58:16;;;;;;;3.65;1.83;;;;;;;;;;5112030;28;20032;-58
2022/04/13 10:00:43;;;;;;;2.45;1.58;;;;;;;;;;5111398;28;20034;-59
2022/04/13 10:03:10;;;;;;;3.65;1.40;;;;;;;;;;5110512;28;20023;-65
2022/04/13 10:05:36;;;;;;;2.30;1.75;;;;;;;;;;5112063;28;20038;-59
2022/04/13 10:08:03;;;;;;;3.35;1.42;;;;;;;;;;5111502;28;20031;-58
2022/04/13 10:10:29;;;;;;;2.58;1.48;;;;;;;;;;5110858;28;20047;-57
2022/04/13 10:12:55;;;;;;;3.92;2.55;;;;;;;;;;5097104;28;20026;-56
2022/04/13 10:15:21;;;;;;;2.40;1.50;;;;;;;;;;5111002;28;20016;-58
2022/04/13 10:17:47;;;;;;;2.55;1.52;;;;;;;;;;5110570;28;20118;-57
2022/04/13 10:20:13;;;;;;;3.35;1.70;;;;;;;;;;5110750;28;20161;-58
2022/04/13 10:22:58;;;;;;;2.92;1.60;;;;;;;;;;5111482;28;20027;-58
2022/04/13 10:25:27;;;;;;;3.15;1.45;;;;;;;;;;5110627;28;20102;-56
2022/04/13 10:27:54;;;;;;;3.88;1.67;;;;;;;;;;5111216;28;20035;-55
2022/04/13 10:30:27;;;;;;;3.40;1.77;;;;;;;;;;5110981;28;20031;-59
2022/04/13 10:32:57;;;;;;;3.00;1.20;;;;;;;;;;5111799;28;20027;-59
2022/04/13 10:35:23;;;;;;;2.05;1.20;;;;;;;;;;5113785;28;20488;-56
2022/04/13 10:37:49;;;;;;;2.22;1.58;;;;;;;;;;5114685;28;20392;-57
2022/04/13 10:40:15;;;;;;;1.63;1.30;;;;;;;;;;5104801;28;20464;-57
2022/04/13 10:42:42;;;;;;;2.47;1.55;;;;;;;;;;5115262;28;20023;-64
2022/04/13 10:45:09;;;;;;;2.92;1.77;;;;;;;;;;5113625;28;20502;-66
2022/04/13 10:47:50;;;;;;;3.35;1.45;;;;;;;;;;5114496;28;20114;-60
2022/04/13 10:50:17;;;;;;;4.18;2.25;;;;;;;;;;5113797;28;20538;-58
2022/04/13 10:52:48;;;;;;;2.58;1.50;;;;;;;;;;5110984;27;20076;-61
2022/04/13 10:55:15;;;;;;;2.08;1.27;;;;;;;;;;5114357;28;20020;-56
2022/04/13 10:57:46;;;;;;;2.40;1.40;;;;;;;;;;5115808;28;20031;-54
2022/04/13 11:00:12;;;;;;;3.67;1.38;;;;;;;;;;5114080;28;20405;-62
2022/04/13 11:02:44;;;;;;;4.22;1.65;;;;;;;;;;5114684;28;20019;-54
2022/04/13 11:05:10;;;;;;;3.17;1.27;;;;;;;;;;5113820;28;20056;-62
2022/04/13 11:07:38;;;;;;;2.08;1.40;;;;;;;;;;5114508;28;20028;-55
2022/04/13 11:10:05;;;;;;;2.97;1.83;;;;;;;;;;5114445;28;20057;-54
2022/04/13 11:12:32;;;;;;;1.83;1.20;;;;;;;;;;5112449;28;20047;-57
2022/04/13 11:15:01;;;;;;;2.10;1.25;;;;;;;;;;5113869;28;20055;-57
2022/04/13 11:17:28;;;;;;;4.75;1.38;;;;;;;;;;5112990;28;20035;-54
2022/04/13 11:20:12;;;;;;;2.95;1.65;;;;;;;;;;5113020;28;20026;-54
2022/04/13 11:22:38;;;;;;;3.70;1.63;;;;;;;;;;5114058;28;20027;-55
2022/04/13 11:25:04;;;;;;;2.72;1.73;;;;;;;;;;5114031;28;20050;-54
2022/04/13 11:27:50;;;;;;;3.70;2.00;;;;;;;;;;5113467;28;20215;-56
2022/04/13 11:30:16;;;;;;;2.85;1.60;;;;;;;;;;5113329;28;20041;-58
2022/04/13 11:32:43;;;;;;;2.30;1.02;;;;;;;;;;5112748;28;20376;-55
2022/04/13 11:35:13;;;;;;;3.58;1.55;;;;;;;;;;5113756;28;20421;-56
2022/04/13 11:37:39;;;;;;;2.50;1.30;;;;;;;;;;5114118;28;20023;-53
2022/04/13 11:40:06;;;;;;;2.30;1.30;;;;;;;;;;5113639;28;20453;-53
2022/04/13 11:42:35;;;;;;;3.65;1.38;;;;;;;;;;5113004;28;20647;-56
2022/04/13 11:45:01;;;;;;;3.08;1.40;;;;;;;;;;5113113;28;20127;-56
2022/04/13 11:47:52;;;;;;;2.15;1.27;;;;;;;;;;5113141;28;20032;-56
2022/04/13 11:50:20;;;;;;;4.35;1.42;;;;;;;;;;5112833;28;20015;-56
2022/04/13 11:52:53;;;;;;;2.47;1.30;;;;;;;;;;5113432;28;20028;-57
2022/04/13 11:55:24;;;;;;;2.45;1.60;;;;;;;;;;5112329;28;20024;-59
2022/04/13 11:58:08;;;;;;;3.17;1.52;;;;;;;;;;5113633;28;20036;-54
2022/04/13 12:00:47;;;;;;;3.55;1.48;;;;;;;;;;5112173;28;20460;-59
2022/04/13 12:03:16;;;;;;;2.25;1.10;;;;;;;;;;5112537;28;20031;-66
2022/04/13 12:05:45;;;;;;;3.05;1.40;;;;;;;;;;5113021;28;20086;-57
2022/04/13 12:08:12;;;;;;;2.47;1.20;;;;;;;;;;5112294;28;20027;-66
2022/04/13 12:10:39;;;;;;;2.05;1.10;;;;;;;;;;5113069;28;20110;-57
2022/04/13 12:13:05;;;;;;;2.10;1.23;;;;;;;;;;5112993;28;20027;-59
2022/04/13 12:15:50;;;;;;;3.30;1.58;;;;;;;;;;5112433;28;20028;-56
2022/04/13 12:18:16;;;;;;;3.30;1.05;;;;;;;;;;5112187;28;20047;-59
2022/04/13 12:20:42;;;;;;;3.22;1.35;;;;;;;;;;5112829;28;20080;-56
2022/04/13 12:23:18;;;;;;;2.55;1.35;;;;;;;;;;5112924;28;20053;-57
2022/04/13 12:25:44;;;;;;;2.17;1.35;;;;;;;;;;5111719;28;20545;-57
2022/04/13 12:28:11;;;;;;;3.60;1.15;;;;;;;;;;5112927;28;20043;-58
2022/04/13 12:30:37;;;;;;;2.45;1.10;;;;;;;;;;5111819;28;20031;-56
2022/04/13 12:33:13;;;;;;;3.00;1.20;;;;;;;;;;5113157;28;20075;-56
2022/04/13 12:35:46;;;;;;;2.53;1.40;;;;;;;;;;5112220;28;20101;-57
2022/04/13 12:38:20;;;;;;;3.25;1.60;;;;;;;;;;5112589;28;20106;-66
2022/04/13 12:40:46;;;;;;;2.50;1.30;;;;;;;;;;5111976;28;20481;-54
2022/04/13 12:43:25;;;;;;;3.20;1.23;;;;;;;;;;5112528;28;20035;-66
2022/04/13 12:45:50;;;;;;;1.60;1.05;;;;;;;;;;5111971;28;20442;-55
2022/04/13 12:48:16;;;;;;;2.80;1.15;;;;;;;;;;5111740;28;20071;-58
2022/04/13 12:50:58;;;;;;;1.95;0.93;;;;;;;;;;5112022;28;20019;-56
2022/04/13 12:53:25;;;;;;;2.95;1.60;;;;;;;;;;5111548;28;20027;-55
2022/04/13 12:55:51;;;;;;;2.75;1.23;;;;;;;;;;5111349;28;20050;-55
2022/04/13 12:58:17;;;;;;;1.17;0.90;;;;;;;;;;5111218;27;20104;-53
2022/04/13 13:00:50;;;;;;;2.80;1.65;;;;;;;;;;5111331;28;20043;-58
2022/04/13 13:03:17;;;;;;;1.80;0.93;;;;;;;;;;5111673;28;20468;-61
2022/04/13 13:05:43;;;;;;;3.90;1.20;;;;;;;;;;5112106;28;20465;-55
2022/04/13 13:08:09;;;;;;;2.05;1.08;;;;;;;;;;5112205;28;20084;-55
2022/04/13 13:10:35;;;;;;;1.67;1.15;;;;;;;;;;5110521;28;20169;-56
2022/04/13 13:13:12;;;;;;;1.35;0.90;;;;;;;;;;5112523;28;20020;-56
2022/04/13 13:15:38;;;;;;;1.63;1.33;;;;;;;;;;5111014;28;20023;-56
2022/04/13 13:18:08;;;;;;;2.33;1.10;;;;;;;;;;5110960;28;20042;-55
2022/04/13 13:20:35;;;;;;;1.48;0.98;;;;;;;;;;5111219;28;20023;-55
2022/04/13 13:23:09;;;;;;;1.70;0.95;;;;;;;;;;5112327;28;20360;-56
2022/04/13 13:25:41;;;;;;;4.50;1.15;;;;;;;;;;5110812;28;20697;-56
2022/04/13 13:28:07;;;;;;;1.55;1.05;;;;;;;;;;5111785;28;20092;-56
2022/04/13 13:30:40;;;;;;;1.75;1.08;;;;;;;;;;5110922;28;21074;-56
2022/04/13 13:33:11;;;;;;;2.45;1.30;;;;;;;;;;5110846;28;20472;-54
2022/04/13 13:35:37;;;;;;;1.45;1.00;;;;;;;;;;5110512;28;20028;-58
2022/04/13 13:38:20;;;;;;;2.17;1.00;;;;;;;;;;5112957;28;20019;-56
2022/04/13 13:40:47;;;;;;;1.67;1.10;;;;;;;;;;5111845;28;20028;-56
2022/04/13 13:43:16;;;;;;;2.55;1.20;;;;;;;;;;5111903;28;20050;-65
2022/04/13 13:45:46;;;;;;;2.88;1.48;;;;;;;;;;5111490;28;20122;-55
2022/04/13 13:48:14;;;;;;;2.75;1.25;;;;;;;;;;5111631;28;20032;-55
2022/04/13 13:50:41;;;;;;;2.35;1.00;;;;;;;;;;5111498;28;20046;-55
2022/04/13 13:53:07;;;;;;;2.17;1.25;;;;;;;;;;5111870;28;20020;-56
2022/04/13 13:55:37;;;;;;;1.15;0.88;;;;;;;;;;5106688;28;20585;-56
2022/04/13 13:58:04;;;;;;;1.75;0.98;;;;;;;;;;5111601;28;20150;-55
2022/04/13 14:00:36;;;;;;;2.10;1.05;;;;;;;;;;5110857;28;20024;-58
2022/04/13 14:03:03;;;;;;;3.30;1.30;;;;;;;;;;5111870;28;20027;-62
2022/04/13 14:05:30;;;;;;;4.13;1.20;;;;;;;;;;5110562;28;20024;-58
2022/04/13 14:07:57;;;;;;;9.30;1.42;;;;;;;;;;5111368;28;20116;-55
2022/04/13 14:10:24;;;;;;;2.88;1.35;;;;;;;;;;5113657;28;20032;-58
2022/04/13 14:12:50;;;;;;;7.00;1.10;;;;;;;;;;5114968;28;20027;-57
2022/04/13 14:15:16;;;;;;;4.18;1.25;;;;;;;;;;5114723;28;20081;-64
2022/04/13 14:17:43;;;;;;;2.92;1.30;;;;;;;;;;5115020;28;20032;-55
2022/04/13 14:20:10;;;;;;;2.42;1.13;;;;;;;;;;5115172;28;20054;-55
2022/04/13 14:22:36;;;;;;;2.97;1.40;;;;;;;;;;5113510;27;20593;-55
2022/04/13 14:25:06;;;;;;;3.33;1.20;;;;;;;;;;5115080;28;20027;-56
2022/04/13 14:27:32;;;;;;;2.85;1.25;;;;;;;;;;5113744;28;20046;-55
2022/04/13 14:29:59;;;;;;;2.13;1.17;;;;;;;;;;5114629;28;20084;-56
2022/04/13 14:32:26;;;;;;;3.47;1.13;;;;;;;;;;5113867;28;20027;-53
2022/04/13 14:34:52;;;;;;;2.38;1.63;;;;;;;;;;5115592;28;20024;-55
2022/04/13 14:37:18;;;;;;;3.95;1.50;;;;;;;;;;5114605;28;20376;-65
2022/04/13 14:39:44;;;;;;;3.75;1.30;;;;;;;;;;5115213;28;20081;-55
2022/04/13 14:42:10;;;;;;;2.78;1.80;;;;;;;;;;5114841;28;20054;-62
2022/04/13 14:44:36;;;;;;;4.55;1.15;;;;;;;;;;5120209;27;20629;-53